UAL1855 KLAX-KEWR
Flight info
| Callsign | UAL1855 |
|---|---|
| Flight time | 4h 14m |
| Altitude | 37000 |
| Route | ORCKA5 LAS J146 DVC KD48S LUISS KD51W THINN/N0479F390 KD54A JUDGE MCI KK57I SPI WWODD RINTE KLYNE Q29 WWSHR DORET J584 SLT FQM3 |
| Aircraft | B772/H-SDE2E3FGHIJ5LORVWXY/A1E2C4 |
Departure
| Time | 2026-05-04 21:19 |
|---|---|
| Airport | Los Angeles International Airport (KLAX) |
Arrival
| Time | 2026-05-05 01:34 |
|---|---|
| Airport | Newark Liberty International Airport (KEWR) |
| Time | Latitude | Longitude | Altitude | Speed | Heading |
|---|---|---|---|---|---|
| 2026-05-04 20:36 | 33.94108 | -118.39907 | 122 ft | 0 kts | 306° |
| 2026-05-04 21:06 | 33.94101 | -118.39896 | 121 ft | 1 kts | 307° |
| 2026-05-04 21:06 | 33.94094 | -118.39885 | 120 ft | 2 kts | 294° |
| 2026-05-04 21:06 | 33.94092 | -118.39867 | 120 ft | 2 kts | 259° |
| 2026-05-04 21:07 | 33.94098 | -118.39851 | 120 ft | 2 kts | 230° |
| 2026-05-04 21:07 | 33.94109 | -118.39839 | 120 ft | 2 kts | 201° |
| 2026-05-04 21:07 | 33.94121 | -118.39835 | 119 ft | 1 kts | 178° |
| 2026-05-04 21:07 | 33.94127 | -118.39836 | 119 ft | 1 kts | 173° |
| 2026-05-04 21:08 | 33.94128 | -118.39836 | 119 ft | 0 kts | 173° |
| 2026-05-04 21:10 | 33.94108 | -118.39834 | 119 ft | 5 kts | 176° |
| 2026-05-04 21:10 | 33.94066 | -118.39831 | 119 ft | 7 kts | 175° |
| 2026-05-04 21:10 | 33.93988 | -118.39820 | 119 ft | 12 kts | 172° |
| 2026-05-04 21:10 | 33.93918 | -118.39767 | 118 ft | 12 kts | 120° |
| 2026-05-04 21:11 | 33.93916 | -118.39651 | 116 ft | 14 kts | 83° |
| 2026-05-04 21:11 | 33.93928 | -118.39525 | 116 ft | 16 kts | 83° |
| 2026-05-04 21:11 | 33.93943 | -118.39381 | 114 ft | 18 kts | 82° |
| 2026-05-04 21:11 | 33.93959 | -118.39224 | 113 ft | 18 kts | 82° |
| 2026-05-04 21:12 | 33.93975 | -118.39066 | 111 ft | 19 kts | 84° |
| 2026-05-04 21:12 | 33.93993 | -118.38895 | 110 ft | 21 kts | 86° |
| 2026-05-04 21:12 | 33.94011 | -118.38719 | 110 ft | 20 kts | 84° |
| 2026-05-04 21:12 | 33.94027 | -118.38552 | 110 ft | 18 kts | 83° |
| 2026-05-04 21:13 | 33.94043 | -118.38393 | 108 ft | 19 kts | 83° |
| 2026-05-04 21:13 | 33.94059 | -118.38224 | 106 ft | 20 kts | 84° |
| 2026-05-04 21:13 | 33.94075 | -118.38080 | 106 ft | 11 kts | 82° |
| 2026-05-04 21:13 | 33.94070 | -118.38039 | 106 ft | 0 kts | 116° |
| 2026-05-04 21:17 | 33.94066 | -118.38031 | 106 ft | 1 kts | 125° |
| 2026-05-04 21:17 | 33.94045 | -118.38014 | 106 ft | 4 kts | 159° |
| 2026-05-04 21:17 | 33.94005 | -118.38015 | 106 ft | 8 kts | 207° |
| 2026-05-04 21:17 | 33.93980 | -118.38069 | 106 ft | 0 kts | 255° |
| 2026-05-04 21:18 | 33.93980 | -118.38071 | 106 ft | 2 kts | 257° |
| 2026-05-04 21:18 | 33.93978 | -118.38085 | 106 ft | 0 kts | 260° |
| 2026-05-04 21:18 | 33.93978 | -118.38088 | 106 ft | 2 kts | 261° |
| 2026-05-04 21:18 | 33.93977 | -118.38094 | 106 ft | 0 kts | 262° |
| 2026-05-04 21:19 | 33.93961 | -118.38260 | 107 ft | 52 kts | 264° |
| 2026-05-04 21:19 | 33.93887 | -118.38963 | 110 ft | 115 kts | 263° |
| 2026-05-04 21:19 | 33.93784 | -118.40116 | 245 ft | 151 kts | 264° |
| 2026-05-04 21:19 | 33.93687 | -118.41347 | 934 ft | 149 kts | 261° |
| 2026-05-04 21:20 | 33.93515 | -118.42593 | 1476 ft | 150 kts | 258° |
| 2026-05-04 21:20 | 33.93312 | -118.43842 | 1648 ft | 157 kts | 262° |
| 2026-05-04 21:20 | 33.93214 | -118.45231 | 1705 ft | 174 kts | 264° |
| 2026-05-04 21:20 | 33.92823 | -118.46669 | 1716 ft | 192 kts | 234° |
| 2026-05-04 21:21 | 33.91662 | -118.47627 | 1685 ft | 220 kts | 198° |
| 2026-05-04 21:21 | 33.90048 | -118.47654 | 2033 ft | 247 kts | 174° |
| 2026-05-04 21:21 | 33.88327 | -118.47186 | 2666 ft | 259 kts | 164° |
| 2026-05-04 21:21 | 33.86613 | -118.46428 | 3431 ft | 266 kts | 162° |
| 2026-05-04 21:22 | 33.84872 | -118.45622 | 4225 ft | 270 kts | 161° |
| 2026-05-04 21:22 | 33.83169 | -118.44619 | 4981 ft | 278 kts | 144° |
| 2026-05-04 21:22 | 33.81927 | -118.42834 | 5717 ft | 286 kts | 117° |
| 2026-05-04 21:22 | 33.81440 | -118.40515 | 6471 ft | 290 kts | 94° |
| 2026-05-04 21:23 | 33.81368 | -118.38095 | 7245 ft | 293 kts | 91° |
| 2026-05-04 21:23 | 33.81478 | -118.35633 | 7971 ft | 296 kts | 75° |
| 2026-05-04 21:23 | 33.82379 | -118.33423 | 8687 ft | 297 kts | 49° |
| 2026-05-04 21:23 | 33.83986 | -118.31922 | 9386 ft | 296 kts | 22° |
| 2026-05-04 21:24 | 33.85983 | -118.31348 | 10092 ft | 296 kts | 4° |
| 2026-05-04 21:24 | 33.88089 | -118.31124 | 10584 ft | 309 kts | 2° |
| 2026-05-04 21:24 | 33.90279 | -118.30923 | 10960 ft | 326 kts | 2° |
| 2026-05-04 21:24 | 33.92639 | -118.30708 | 11329 ft | 344 kts | 2° |
| 2026-05-04 21:25 | 33.95094 | -118.30485 | 11697 ft | 361 kts | 3° |
| 2026-05-04 21:25 | 33.97643 | -118.29916 | 12054 ft | 380 kts | 15° |
| 2026-05-04 21:25 | 34.00168 | -118.28667 | 12401 ft | 399 kts | 27° |
| 2026-05-04 21:25 | 34.02522 | -118.26778 | 12928 ft | 411 kts | 38° |
| 2026-05-04 21:26 | 34.04553 | -118.24340 | 13549 ft | 418 kts | 50° |
| 2026-05-04 21:26 | 34.06222 | -118.21436 | 14170 ft | 424 kts | 58° |
| 2026-05-04 21:26 | 34.07797 | -118.18382 | 14812 ft | 430 kts | 58° |
| 2026-05-04 21:26 | 34.09392 | -118.15358 | 15426 ft | 435 kts | 57° |
| 2026-05-04 21:27 | 34.11060 | -118.12260 | 16017 ft | 441 kts | 57° |
| 2026-05-04 21:27 | 34.12776 | -118.09120 | 16614 ft | 447 kts | 57° |
| 2026-05-04 21:27 | 34.14522 | -118.05952 | 17203 ft | 454 kts | 56° |
| 2026-05-04 21:27 | 34.16267 | -118.02807 | 17732 ft | 459 kts | 56° |
| 2026-05-04 21:28 | 34.18066 | -117.99577 | 18226 ft | 464 kts | 56° |
| 2026-05-04 21:28 | 34.19886 | -117.96316 | 18686 ft | 469 kts | 56° |
| 2026-05-04 21:28 | 34.21722 | -117.93029 | 19189 ft | 474 kts | 56° |
| 2026-05-04 21:28 | 34.23555 | -117.89753 | 19660 ft | 479 kts | 56° |
| 2026-05-04 21:29 | 34.25454 | -117.86358 | 20137 ft | 485 kts | 56° |
| 2026-05-04 21:29 | 34.27341 | -117.82984 | 20600 ft | 490 kts | 56° |
| 2026-05-04 21:29 | 34.29262 | -117.79548 | 21054 ft | 496 kts | 56° |
| 2026-05-04 21:29 | 34.31202 | -117.76076 | 21511 ft | 501 kts | 56° |
| 2026-05-04 21:30 | 34.33138 | -117.72610 | 21954 ft | 506 kts | 56° |
| 2026-05-04 21:30 | 34.35130 | -117.69038 | 22395 ft | 511 kts | 56° |
| 2026-05-04 21:30 | 34.37178 | -117.65526 | 22818 ft | 515 kts | 53° |
| 2026-05-04 21:30 | 34.39297 | -117.61998 | 23241 ft | 519 kts | 53° |
| 2026-05-04 21:31 | 34.43546 | -117.54915 | 24059 ft | 528 kts | 53° |
| 2026-05-04 21:31 | 34.45712 | -117.51292 | 24444 ft | 532 kts | 53° |
| 2026-05-04 21:31 | 34.47878 | -117.47662 | 24817 ft | 537 kts | 54° |
| 2026-05-04 21:32 | 34.50077 | -117.43970 | 25194 ft | 541 kts | 54° |
| 2026-05-04 21:32 | 34.52301 | -117.40232 | 25570 ft | 546 kts | 54° |
| 2026-05-04 21:32 | 34.54525 | -117.36486 | 25931 ft | 550 kts | 54° |
| 2026-05-04 21:32 | 34.56740 | -117.32748 | 26272 ft | 555 kts | 56° |
| 2026-05-04 21:33 | 34.59016 | -117.28895 | 26569 ft | 560 kts | 56° |
| 2026-05-04 21:33 | 34.61299 | -117.25034 | 26889 ft | 565 kts | 56° |
| 2026-05-04 21:33 | 34.63599 | -117.21156 | 27225 ft | 569 kts | 56° |
| 2026-05-04 21:33 | 34.65890 | -117.17289 | 27563 ft | 573 kts | 56° |
| 2026-05-04 21:34 | 34.68229 | -117.13318 | 27907 ft | 576 kts | 57° |
| 2026-05-04 21:34 | 34.70550 | -117.09351 | 28236 ft | 580 kts | 57° |
| 2026-05-04 21:34 | 34.72886 | -117.05390 | 28566 ft | 584 kts | 56° |
| 2026-05-04 21:34 | 34.75268 | -117.01340 | 28901 ft | 588 kts | 57° |
| 2026-05-04 21:35 | 34.77642 | -116.97304 | 29224 ft | 592 kts | 57° |
| 2026-05-04 21:35 | 34.80045 | -116.93192 | 29563 ft | 596 kts | 57° |
| 2026-05-04 21:35 | 34.82458 | -116.89062 | 29898 ft | 600 kts | 57° |
| 2026-05-04 21:35 | 34.84864 | -116.84962 | 30237 ft | 603 kts | 57° |
| 2026-05-04 21:36 | 34.87282 | -116.80807 | 30637 ft | 605 kts | 57° |
| 2026-05-04 21:36 | 34.89733 | -116.76604 | 31124 ft | 604 kts | 57° |
| 2026-05-04 21:36 | 34.92228 | -116.72529 | 31603 ft | 605 kts | 51° |
| 2026-05-04 21:36 | 34.95040 | -116.68681 | 32039 ft | 606 kts | 48° |
| 2026-05-04 21:37 | 34.97865 | -116.64968 | 32454 ft | 607 kts | 47° |
| 2026-05-04 21:37 | 35.00744 | -116.61193 | 32885 ft | 608 kts | 47° |
| 2026-05-04 21:37 | 35.03611 | -116.57426 | 33332 ft | 608 kts | 47° |
| 2026-05-04 21:37 | 35.06495 | -116.53631 | 33782 ft | 608 kts | 47° |
| 2026-05-04 21:38 | 35.09450 | -116.49734 | 34232 ft | 608 kts | 47° |
| 2026-05-04 21:38 | 35.12324 | -116.45939 | 34610 ft | 609 kts | 47° |
| 2026-05-04 21:38 | 35.15212 | -116.42120 | 34921 ft | 611 kts | 46° |
| 2026-05-04 21:38 | 35.18085 | -116.38314 | 35287 ft | 612 kts | 46° |
| 2026-05-04 21:39 | 35.20983 | -116.34470 | 35722 ft | 610 kts | 47° |
| 2026-05-04 21:39 | 35.23853 | -116.30660 | 36054 ft | 610 kts | 47° |
| 2026-05-04 21:39 | 35.26732 | -116.26831 | 36280 ft | 613 kts | 47° |
| 2026-05-04 21:39 | 35.29635 | -116.22966 | 36529 ft | 614 kts | 47° |
| 2026-05-04 21:40 | 35.32494 | -116.19154 | 36815 ft | 613 kts | 46° |
| 2026-05-04 21:40 | 35.35406 | -116.15268 | 36972 ft | 615 kts | 46° |
| 2026-05-04 21:40 | 35.38257 | -116.11459 | 36967 ft | 615 kts | 46° |
| 2026-05-04 21:41 | 35.44019 | -116.03748 | 36974 ft | 610 kts | 46° |
| 2026-05-04 21:41 | 35.49752 | -115.96052 | 36951 ft | 609 kts | 46° |
| 2026-05-04 21:42 | 35.55416 | -115.88425 | 36961 ft | 610 kts | 46° |
| 2026-05-04 21:42 | 35.61144 | -115.80728 | 36966 ft | 610 kts | 46° |
| 2026-05-04 21:43 | 35.66813 | -115.73022 | 36961 ft | 609 kts | 46° |
| 2026-05-04 21:43 | 35.72437 | -115.65280 | 36900 ft | 608 kts | 46° |
| 2026-05-04 21:44 | 35.78093 | -115.57478 | 36776 ft | 609 kts | 46° |
| 2026-05-04 21:44 | 35.83700 | -115.49712 | 36532 ft | 609 kts | 46° |
| 2026-05-04 21:45 | 35.89309 | -115.41946 | 36569 ft | 603 kts | 46° |
| 2026-05-04 21:45 | 35.92073 | -115.38120 | 36687 ft | 605 kts | 46° |
| 2026-05-04 21:45 | 35.94901 | -115.34187 | 36815 ft | 606 kts | 47° |
| 2026-05-04 21:46 | 36.00499 | -115.26401 | 36944 ft | 610 kts | 47° |
| 2026-05-04 21:46 | 36.05947 | -115.18412 | 36926 ft | 609 kts | 55° |
| 2026-05-04 21:47 | 36.09984 | -115.09230 | 36923 ft | 605 kts | 71° |
| 2026-05-04 21:47 | 36.13036 | -114.99518 | 36880 ft | 605 kts | 72° |
| 2026-05-04 21:48 | 36.16023 | -114.89827 | 36861 ft | 605 kts | 72° |
| 2026-05-04 21:48 | 36.19012 | -114.80091 | 36862 ft | 606 kts | 72° |
| 2026-05-04 21:49 | 36.21991 | -114.70369 | 36879 ft | 606 kts | 71° |
| 2026-05-04 21:49 | 36.24976 | -114.60599 | 36884 ft | 607 kts | 71° |
| 2026-05-04 21:50 | 36.27934 | -114.50878 | 36880 ft | 607 kts | 71° |
| 2026-05-04 21:50 | 36.30912 | -114.41059 | 36884 ft | 607 kts | 71° |
| 2026-05-04 21:51 | 36.33859 | -114.31306 | 36874 ft | 607 kts | 71° |
| 2026-05-04 21:51 | 36.36815 | -114.21488 | 36882 ft | 607 kts | 71° |
| 2026-05-04 21:52 | 36.39769 | -114.11643 | 36879 ft | 608 kts | 71° |
| 2026-05-04 21:52 | 36.42688 | -114.01880 | 36886 ft | 608 kts | 71° |
| 2026-05-04 21:53 | 36.45631 | -113.92004 | 36914 ft | 607 kts | 71° |
| 2026-05-04 21:53 | 36.48539 | -113.82207 | 36966 ft | 608 kts | 71° |
| 2026-05-04 21:54 | 36.51463 | -113.72327 | 36989 ft | 609 kts | 71° |
| 2026-05-04 21:54 | 36.54363 | -113.62489 | 37007 ft | 609 kts | 71° |
| 2026-05-04 21:55 | 36.57270 | -113.52592 | 37043 ft | 608 kts | 71° |
| 2026-05-04 21:55 | 36.60157 | -113.42728 | 37074 ft | 608 kts | 71° |
| 2026-05-04 21:56 | 36.63027 | -113.32886 | 37104 ft | 608 kts | 71° |
| 2026-05-04 21:56 | 36.65883 | -113.23048 | 37126 ft | 608 kts | 71° |
| 2026-05-04 21:57 | 36.68751 | -113.13131 | 37117 ft | 608 kts | 71° |
| 2026-05-04 21:57 | 36.71600 | -113.03242 | 37093 ft | 608 kts | 71° |
| 2026-05-04 21:58 | 36.74453 | -112.93306 | 37040 ft | 607 kts | 71° |
| 2026-05-04 21:58 | 36.77276 | -112.83434 | 36990 ft | 606 kts | 71° |
| 2026-05-04 21:59 | 36.80093 | -112.73549 | 36987 ft | 606 kts | 71° |
| 2026-05-04 21:59 | 36.82900 | -112.63664 | 37011 ft | 606 kts | 71° |
| 2026-05-04 22:00 | 36.85694 | -112.53791 | 37028 ft | 606 kts | 71° |
| 2026-05-04 22:00 | 36.88494 | -112.43858 | 37044 ft | 606 kts | 71° |
| 2026-05-04 22:01 | 36.91267 | -112.33956 | 37068 ft | 605 kts | 71° |
| 2026-05-04 22:01 | 36.94030 | -112.24091 | 37059 ft | 605 kts | 71° |
| 2026-05-04 22:02 | 36.96805 | -112.14150 | 37035 ft | 606 kts | 71° |
| 2026-05-04 22:02 | 36.99564 | -112.04225 | 37009 ft | 605 kts | 71° |
| 2026-05-04 22:03 | 37.02327 | -111.94253 | 37008 ft | 605 kts | 71° |
| 2026-05-04 22:03 | 37.05079 | -111.84285 | 37020 ft | 605 kts | 71° |
| 2026-05-04 22:04 | 37.07807 | -111.74365 | 37028 ft | 604 kts | 70° |
| 2026-05-04 22:04 | 37.10552 | -111.64346 | 37008 ft | 604 kts | 70° |
| 2026-05-04 22:05 | 37.13267 | -111.54399 | 36986 ft | 603 kts | 70° |
| 2026-05-04 22:05 | 37.15960 | -111.44495 | 36976 ft | 603 kts | 70° |
| 2026-05-04 22:06 | 37.18661 | -111.34525 | 36962 ft | 603 kts | 71° |
| 2026-05-04 22:06 | 37.21349 | -111.24557 | 36917 ft | 603 kts | 71° |
| 2026-05-04 22:07 | 37.24011 | -111.14649 | 36924 ft | 603 kts | 71° |
| 2026-05-04 22:07 | 37.26694 | -111.04621 | 36948 ft | 603 kts | 71° |
| 2026-05-04 22:08 | 37.29351 | -110.94653 | 36964 ft | 602 kts | 71° |
| 2026-05-04 22:08 | 37.31988 | -110.84714 | 36959 ft | 602 kts | 71° |
| 2026-05-04 22:09 | 37.34640 | -110.74685 | 36940 ft | 601 kts | 71° |
| 2026-05-04 22:09 | 37.37260 | -110.64740 | 36921 ft | 600 kts | 70° |
| 2026-05-04 22:10 | 37.39873 | -110.54782 | 36923 ft | 600 kts | 70° |
| 2026-05-04 22:10 | 37.42487 | -110.44779 | 36949 ft | 600 kts | 70° |
| 2026-05-04 22:11 | 37.45073 | -110.34847 | 36996 ft | 599 kts | 71° |
| 2026-05-04 22:11 | 37.47652 | -110.24902 | 37028 ft | 599 kts | 71° |
| 2026-05-04 22:12 | 37.50222 | -110.14953 | 37063 ft | 599 kts | 71° |
| 2026-05-04 22:12 | 37.52786 | -110.04987 | 37073 ft | 598 kts | 71° |
| 2026-05-04 22:13 | 37.55355 | -109.94961 | 37105 ft | 598 kts | 71° |
| 2026-05-04 22:13 | 37.57893 | -109.85018 | 37116 ft | 599 kts | 71° |
| 2026-05-04 22:14 | 37.60432 | -109.75031 | 37105 ft | 598 kts | 71° |
| 2026-05-04 22:14 | 37.62968 | -109.65018 | 37083 ft | 597 kts | 70° |
| 2026-05-04 22:15 | 37.65476 | -109.55075 | 37072 ft | 598 kts | 70° |
| 2026-05-04 22:15 | 37.67984 | -109.45089 | 37065 ft | 598 kts | 70° |
| 2026-05-04 22:16 | 37.70490 | -109.35075 | 37038 ft | 598 kts | 70° |
| 2026-05-04 22:16 | 37.72993 | -109.25027 | 36980 ft | 597 kts | 71° |
| 2026-05-04 22:17 | 37.75457 | -109.15099 | 36997 ft | 598 kts | 71° |
| 2026-05-04 22:17 | 37.77936 | -109.05067 | 37031 ft | 599 kts | 71° |
| 2026-05-04 22:18 | 37.80417 | -108.94988 | 37028 ft | 599 kts | 71° |
| 2026-05-04 22:18 | 37.82706 | -108.84776 | 37022 ft | 600 kts | 74° |
| 2026-05-04 22:19 | 37.84813 | -108.74519 | 37024 ft | 601 kts | 73° |
| 2026-05-04 22:19 | 37.86925 | -108.64242 | 37044 ft | 601 kts | 73° |
| 2026-05-04 22:20 | 37.89028 | -108.53999 | 37106 ft | 602 kts | 73° |
| 2026-05-04 22:20 | 37.91151 | -108.43694 | 37179 ft | 602 kts | 73° |
| 2026-05-04 22:21 | 37.93245 | -108.33431 | 37226 ft | 602 kts | 73° |
| 2026-05-04 22:21 | 37.95333 | -108.23165 | 37259 ft | 603 kts | 73° |
| 2026-05-04 22:22 | 37.97420 | -108.12826 | 37276 ft | 604 kts | 73° |
| 2026-05-04 22:22 | 37.99492 | -108.02566 | 37257 ft | 604 kts | 73° |
| 2026-05-04 22:23 | 38.01066 | -107.92081 | 37270 ft | 605 kts | 79° |
| 2026-05-04 22:23 | 38.02448 | -107.81537 | 37373 ft | 608 kts | 79° |
| 2026-05-04 22:24 | 38.03814 | -107.71011 | 37421 ft | 608 kts | 79° |
| 2026-05-04 22:24 | 38.05177 | -107.60429 | 37382 ft | 607 kts | 79° |
| 2026-05-04 22:25 | 38.06521 | -107.49902 | 37407 ft | 605 kts | 79° |
| 2026-05-04 22:25 | 38.07867 | -107.39363 | 37348 ft | 606 kts | 79° |
| 2026-05-04 22:26 | 38.09205 | -107.28824 | 37213 ft | 604 kts | 80° |
| 2026-05-04 22:26 | 38.10526 | -107.18330 | 37137 ft | 602 kts | 80° |
| 2026-05-04 22:27 | 38.11834 | -107.07861 | 37207 ft | 604 kts | 80° |
| 2026-05-04 22:27 | 38.13141 | -106.97314 | 37310 ft | 604 kts | 80° |
| 2026-05-04 22:28 | 38.14439 | -106.86758 | 37257 ft | 604 kts | 80° |
| 2026-05-04 22:28 | 38.15724 | -106.76221 | 37173 ft | 601 kts | 79° |
| 2026-05-04 22:29 | 38.16994 | -106.65736 | 37153 ft | 601 kts | 79° |
| 2026-05-04 22:29 | 38.18263 | -106.55173 | 37177 ft | 602 kts | 79° |
| 2026-05-04 22:30 | 38.19511 | -106.44705 | 37221 ft | 603 kts | 79° |
| 2026-05-04 22:30 | 38.20754 | -106.34197 | 37261 ft | 604 kts | 80° |
| 2026-05-04 22:31 | 38.21991 | -106.23656 | 37228 ft | 604 kts | 80° |
| 2026-05-04 22:31 | 38.23377 | -106.13120 | 37179 ft | 603 kts | 78° |
| 2026-05-04 22:32 | 38.24799 | -106.02604 | 37128 ft | 604 kts | 78° |
| 2026-05-04 22:32 | 38.26207 | -105.92084 | 37119 ft | 603 kts | 78° |
| 2026-05-04 22:33 | 38.27592 | -105.81622 | 37201 ft | 605 kts | 78° |
| 2026-05-04 22:33 | 38.28987 | -105.70998 | 37116 ft | 606 kts | 78° |
| 2026-05-04 22:34 | 38.30349 | -105.60531 | 37171 ft | 605 kts | 78° |
| 2026-05-04 22:34 | 38.31727 | -105.49872 | 37022 ft | 605 kts | 78° |
| 2026-05-04 22:35 | 38.33067 | -105.39414 | 36937 ft | 600 kts | 78° |
| 2026-05-04 22:35 | 38.34414 | -105.28827 | 36861 ft | 601 kts | 79° |
| 2026-05-04 22:36 | 38.35740 | -105.18331 | 36798 ft | 602 kts | 79° |
| 2026-05-04 22:36 | 38.37057 | -105.07824 | 36728 ft | 601 kts | 79° |
| 2026-05-04 22:37 | 38.38363 | -104.97317 | 36694 ft | 600 kts | 79° |
| 2026-05-04 22:37 | 38.39654 | -104.86852 | 36724 ft | 600 kts | 79° |
| 2026-05-04 22:38 | 38.40946 | -104.76308 | 36787 ft | 601 kts | 79° |
| 2026-05-04 22:38 | 38.42234 | -104.65717 | 36823 ft | 602 kts | 78° |
| 2026-05-04 22:39 | 38.43507 | -104.55159 | 36788 ft | 601 kts | 78° |
| 2026-05-04 22:39 | 38.44764 | -104.44660 | 36766 ft | 600 kts | 78° |
| 2026-05-04 22:40 | 38.46022 | -104.34064 | 36813 ft | 602 kts | 79° |
| 2026-05-04 22:40 | 38.47269 | -104.23479 | 36836 ft | 603 kts | 79° |
| 2026-05-04 22:41 | 38.48502 | -104.12935 | 36837 ft | 603 kts | 79° |
| 2026-05-04 22:41 | 38.49733 | -104.02312 | 36807 ft | 604 kts | 79° |
| 2026-05-04 22:42 | 38.51360 | -103.91852 | 36754 ft | 599 kts | 70° |
| 2026-05-04 22:42 | 38.53578 | -103.81587 | 36701 ft | 599 kts | 70° |
| 2026-05-04 22:43 | 38.55748 | -103.71331 | 36682 ft | 599 kts | 70° |
| 2026-05-04 22:43 | 38.57885 | -103.61033 | 36701 ft | 599 kts | 70° |
| 2026-05-04 22:44 | 38.59988 | -103.50745 | 36730 ft | 599 kts | 70° |
| 2026-05-04 22:44 | 38.62068 | -103.40469 | 36773 ft | 598 kts | 70° |
| 2026-05-04 22:45 | 38.64137 | -103.30160 | 36791 ft | 596 kts | 71° |
| 2026-05-04 22:45 | 38.67197 | -103.14786 | 36800 ft | 596 kts | 71° |
| 2026-05-04 22:46 | 38.69237 | -103.04459 | 36789 ft | 596 kts | 71° |
| 2026-05-04 22:46 | 38.71255 | -102.94189 | 36751 ft | 596 kts | 71° |
| 2026-05-04 22:47 | 38.73258 | -102.83939 | 36709 ft | 595 kts | 71° |
| 2026-05-04 22:47 | 38.75257 | -102.73655 | 36698 ft | 594 kts | 71° |
| 2026-05-04 22:48 | 38.77235 | -102.63425 | 36710 ft | 593 kts | 71° |
| 2026-05-04 22:48 | 38.79214 | -102.53142 | 36743 ft | 594 kts | 71° |
| 2026-05-04 22:49 | 38.81172 | -102.42914 | 36773 ft | 594 kts | 71° |
| 2026-05-04 22:49 | 38.83136 | -102.32599 | 36762 ft | 594 kts | 72° |
| 2026-05-04 22:50 | 38.84684 | -102.22159 | 36742 ft | 599 kts | 81° |
| 2026-05-04 22:50 | 38.85539 | -102.11519 | 36728 ft | 600 kts | 82° |
| 2026-05-04 22:51 | 38.86362 | -102.00884 | 36718 ft | 599 kts | 82° |
| 2026-05-04 22:51 | 38.87172 | -101.90265 | 36712 ft | 599 kts | 82° |
| 2026-05-04 22:52 | 38.87971 | -101.79660 | 36712 ft | 599 kts | 82° |
| 2026-05-04 22:52 | 38.88760 | -101.69038 | 36726 ft | 597 kts | 81° |
| 2026-05-04 22:53 | 38.89537 | -101.58443 | 36733 ft | 596 kts | 81° |
| 2026-05-04 22:53 | 38.90306 | -101.47823 | 36717 ft | 596 kts | 81° |
| 2026-05-04 22:54 | 38.91066 | -101.37260 | 36704 ft | 596 kts | 81° |
| 2026-05-04 22:54 | 38.91817 | -101.26659 | 36686 ft | 595 kts | 82° |
| 2026-05-04 22:55 | 38.92546 | -101.16084 | 36703 ft | 595 kts | 82° |
| 2026-05-04 22:55 | 38.93272 | -101.05525 | 36711 ft | 594 kts | 82° |
| 2026-05-04 22:56 | 38.93990 | -100.95015 | 36719 ft | 594 kts | 82° |
| 2026-05-04 22:56 | 38.94702 | -100.84450 | 36715 ft | 593 kts | 82° |
| 2026-05-04 22:57 | 38.95391 | -100.73902 | 36707 ft | 592 kts | 82° |
| 2026-05-04 22:57 | 38.96079 | -100.63326 | 36702 ft | 592 kts | 82° |
| 2026-05-04 22:58 | 38.96755 | -100.52789 | 36699 ft | 591 kts | 82° |
| 2026-05-04 22:58 | 38.97417 | -100.42339 | 36703 ft | 591 kts | 82° |
| 2026-05-04 22:59 | 38.98076 | -100.31773 | 36691 ft | 591 kts | 83° |
| 2026-05-04 22:59 | 38.98726 | -100.21207 | 36809 ft | 596 kts | 82° |
| 2026-05-04 23:00 | 38.99049 | -100.15877 | 37132 ft | 592 kts | 82° |
| 2026-05-04 23:00 | 38.99369 | -100.10577 | 37479 ft | 589 kts | 82° |
| 2026-05-04 23:00 | 38.99682 | -100.05338 | 37689 ft | 590 kts | 82° |
| 2026-05-04 23:00 | 38.99997 | -100.00049 | 37835 ft | 592 kts | 82° |
| 2026-05-04 23:01 | 39.00208 | -99.94748 | 37998 ft | 595 kts | 86° |
| 2026-05-04 23:01 | 39.00301 | -99.89408 | 38229 ft | 596 kts | 86° |
| 2026-05-04 23:01 | 39.00379 | -99.84024 | 38465 ft | 596 kts | 86° |
| 2026-05-04 23:01 | 39.00460 | -99.78688 | 38672 ft | 596 kts | 86° |
| 2026-05-04 23:02 | 39.00603 | -99.68009 | 38741 ft | 600 kts | 85° |
| 2026-05-04 23:02 | 39.00761 | -99.57245 | 38741 ft | 599 kts | 85° |
| 2026-05-04 23:03 | 39.00917 | -99.46497 | 38697 ft | 599 kts | 85° |
| 2026-05-04 23:03 | 39.01077 | -99.35801 | 38695 ft | 599 kts | 85° |
| 2026-05-04 23:04 | 39.01225 | -99.25018 | 38677 ft | 599 kts | 86° |
| 2026-05-04 23:04 | 39.01351 | -99.14345 | 38684 ft | 599 kts | 86° |
| 2026-05-04 23:05 | 39.01500 | -99.03651 | 38695 ft | 598 kts | 85° |
| 2026-05-04 23:05 | 39.01627 | -98.92897 | 38680 ft | 598 kts | 86° |
| 2026-05-04 23:06 | 39.01710 | -98.82212 | 38670 ft | 598 kts | 86° |
| 2026-05-04 23:06 | 39.01791 | -98.71506 | 38678 ft | 597 kts | 85° |
| 2026-05-04 23:07 | 39.01899 | -98.60744 | 38675 ft | 597 kts | 85° |
| 2026-05-04 23:07 | 39.01944 | -98.50034 | 38677 ft | 598 kts | 85° |
| 2026-05-04 23:08 | 39.02029 | -98.39323 | 38685 ft | 597 kts | 85° |
| 2026-05-04 23:08 | 39.02102 | -98.28648 | 38666 ft | 597 kts | 86° |
| 2026-05-04 23:09 | 39.02149 | -98.17903 | 38672 ft | 597 kts | 86° |
| 2026-05-04 23:09 | 39.02188 | -98.07188 | 38676 ft | 598 kts | 86° |
| 2026-05-04 23:10 | 39.02210 | -97.96500 | 38678 ft | 598 kts | 86° |
| 2026-05-04 23:10 | 39.02238 | -97.85781 | 38682 ft | 597 kts | 86° |
| 2026-05-04 23:11 | 39.02258 | -97.75105 | 38679 ft | 596 kts | 86° |
| 2026-05-04 23:11 | 39.02260 | -97.64516 | 38691 ft | 592 kts | 86° |
| 2026-05-04 23:12 | 39.02240 | -97.53916 | 38695 ft | 590 kts | 86° |
| 2026-05-04 23:12 | 39.02216 | -97.43349 | 38691 ft | 591 kts | 86° |
| 2026-05-04 23:13 | 39.02195 | -97.32761 | 38678 ft | 590 kts | 86° |
| 2026-05-04 23:13 | 39.02157 | -97.22196 | 38669 ft | 589 kts | 86° |
| 2026-05-04 23:14 | 39.02109 | -97.11624 | 38672 ft | 588 kts | 86° |
| 2026-05-04 23:14 | 39.02044 | -97.01124 | 38669 ft | 586 kts | 87° |
| 2026-05-04 23:15 | 39.02135 | -96.90681 | 38675 ft | 581 kts | 79° |
| 2026-05-04 23:15 | 39.03373 | -96.80424 | 38676 ft | 575 kts | 74° |
| 2026-05-04 23:16 | 39.04733 | -96.70345 | 38682 ft | 574 kts | 74° |
| 2026-05-04 23:16 | 39.06067 | -96.60171 | 38690 ft | 572 kts | 75° |
| 2026-05-04 23:17 | 39.07372 | -96.50108 | 38697 ft | 571 kts | 75° |
| 2026-05-04 23:17 | 39.08665 | -96.40028 | 38701 ft | 570 kts | 75° |
| 2026-05-04 23:18 | 39.09936 | -96.29947 | 38681 ft | 569 kts | 75° |
| 2026-05-04 23:18 | 39.11206 | -96.19906 | 38685 ft | 568 kts | 76° |
| 2026-05-04 23:19 | 39.12441 | -96.09889 | 38679 ft | 567 kts | 76° |
| 2026-05-04 23:19 | 39.13690 | -95.99844 | 38680 ft | 566 kts | 76° |
| 2026-05-04 23:20 | 39.14925 | -95.89819 | 38683 ft | 564 kts | 76° |
| 2026-05-04 23:20 | 39.16136 | -95.79896 | 38688 ft | 559 kts | 76° |
| 2026-05-04 23:21 | 39.17333 | -95.69987 | 38688 ft | 558 kts | 76° |
| 2026-05-04 23:21 | 39.18526 | -95.60102 | 38692 ft | 558 kts | 76° |
| 2026-05-04 23:22 | 39.19706 | -95.50195 | 38691 ft | 557 kts | 76° |
| 2026-05-04 23:22 | 39.20874 | -95.40334 | 38692 ft | 557 kts | 76° |
| 2026-05-04 23:23 | 39.22026 | -95.30519 | 38682 ft | 557 kts | 77° |
| 2026-05-04 23:23 | 39.23181 | -95.20606 | 38687 ft | 557 kts | 77° |
| 2026-05-04 23:24 | 39.24324 | -95.10723 | 38692 ft | 556 kts | 77° |
| 2026-05-04 23:24 | 39.25451 | -95.00908 | 38695 ft | 556 kts | 77° |
| 2026-05-04 23:25 | 39.26580 | -94.90987 | 38697 ft | 555 kts | 77° |
| 2026-05-04 23:25 | 39.27692 | -94.81149 | 38696 ft | 554 kts | 77° |
| 2026-05-04 23:26 | 39.28781 | -94.71333 | 38692 ft | 554 kts | 78° |
| 2026-05-04 23:26 | 39.29667 | -94.61427 | 38687 ft | 554 kts | 79° |
| 2026-05-04 23:27 | 39.30528 | -94.51578 | 38684 ft | 552 kts | 79° |
| 2026-05-04 23:27 | 39.31391 | -94.41667 | 38683 ft | 551 kts | 79° |
| 2026-05-04 23:28 | 39.32240 | -94.31876 | 38674 ft | 550 kts | 79° |
| 2026-05-04 23:28 | 39.33087 | -94.22025 | 38677 ft | 549 kts | 80° |
| 2026-05-04 23:29 | 39.33920 | -94.12266 | 38683 ft | 548 kts | 80° |
| 2026-05-04 23:29 | 39.34747 | -94.02483 | 38686 ft | 547 kts | 80° |
| 2026-05-04 23:30 | 39.35566 | -93.92691 | 38686 ft | 547 kts | 80° |
| 2026-05-04 23:30 | 39.36377 | -93.82908 | 38684 ft | 546 kts | 80° |
| 2026-05-04 23:31 | 39.37174 | -93.73196 | 38686 ft | 544 kts | 80° |
| 2026-05-04 23:31 | 39.37961 | -93.63489 | 38687 ft | 540 kts | 80° |
| 2026-05-04 23:32 | 39.38737 | -93.53825 | 38682 ft | 539 kts | 80° |
| 2026-05-04 23:32 | 39.39505 | -93.44181 | 38686 ft | 540 kts | 80° |
| 2026-05-04 23:33 | 39.40264 | -93.34531 | 38691 ft | 540 kts | 81° |
| 2026-05-04 23:33 | 39.41011 | -93.24923 | 38682 ft | 540 kts | 81° |
| 2026-05-04 23:34 | 39.41752 | -93.15301 | 38685 ft | 539 kts | 81° |
| 2026-05-04 23:34 | 39.42489 | -93.05621 | 38688 ft | 538 kts | 81° |
| 2026-05-04 23:35 | 39.43214 | -92.95995 | 38693 ft | 537 kts | 81° |
| 2026-05-04 23:35 | 39.43927 | -92.86419 | 38693 ft | 535 kts | 81° |
| 2026-05-04 23:36 | 39.44633 | -92.76829 | 38695 ft | 534 kts | 81° |
| 2026-05-04 23:36 | 39.45324 | -92.67334 | 38695 ft | 533 kts | 81° |
| 2026-05-04 23:37 | 39.46012 | -92.57763 | 38696 ft | 532 kts | 81° |
| 2026-05-04 23:37 | 39.46687 | -92.48283 | 38697 ft | 530 kts | 81° |
| 2026-05-04 23:38 | 39.47354 | -92.38792 | 38698 ft | 528 kts | 81° |
| 2026-05-04 23:38 | 39.48014 | -92.29303 | 38686 ft | 528 kts | 82° |
| 2026-05-04 23:39 | 39.48665 | -92.19821 | 38683 ft | 526 kts | 82° |
| 2026-05-04 23:39 | 39.49303 | -92.10395 | 38684 ft | 525 kts | 82° |
| 2026-05-04 23:40 | 39.49933 | -92.01001 | 38684 ft | 524 kts | 82° |
| 2026-05-04 23:40 | 39.51055 | -91.91723 | 38687 ft | 520 kts | 74° |
| 2026-05-04 23:41 | 39.52591 | -91.82538 | 38689 ft | 518 kts | 75° |
| 2026-05-04 23:41 | 39.54065 | -91.73418 | 38690 ft | 517 kts | 75° |
| 2026-05-04 23:42 | 39.55509 | -91.64263 | 38684 ft | 516 kts | 75° |
| 2026-05-04 23:42 | 39.56934 | -91.55093 | 38688 ft | 517 kts | 76° |
| 2026-05-04 23:43 | 39.58332 | -91.45982 | 38692 ft | 517 kts | 76° |
| 2026-05-04 23:43 | 39.59724 | -91.36838 | 38690 ft | 517 kts | 76° |
| 2026-05-04 23:44 | 39.61116 | -91.27631 | 38678 ft | 517 kts | 76° |
| 2026-05-04 23:44 | 39.62487 | -91.18489 | 38676 ft | 517 kts | 76° |
| 2026-05-04 23:45 | 39.63856 | -91.09319 | 38676 ft | 517 kts | 76° |
| 2026-05-04 23:45 | 39.65222 | -91.00099 | 38676 ft | 516 kts | 76° |
| 2026-05-04 23:46 | 39.66580 | -90.90887 | 38678 ft | 516 kts | 76° |
| 2026-05-04 23:46 | 39.67916 | -90.81771 | 38677 ft | 515 kts | 76° |
| 2026-05-04 23:47 | 39.69249 | -90.72620 | 38678 ft | 515 kts | 76° |
| 2026-05-04 23:47 | 39.70575 | -90.63464 | 38680 ft | 515 kts | 76° |
| 2026-05-04 23:48 | 39.71894 | -90.54302 | 38682 ft | 515 kts | 76° |
| 2026-05-04 23:48 | 39.73203 | -90.45158 | 38682 ft | 515 kts | 77° |
| 2026-05-04 23:49 | 39.74506 | -90.35998 | 38682 ft | 514 kts | 77° |
| 2026-05-04 23:49 | 39.75794 | -90.26897 | 38673 ft | 514 kts | 77° |
| 2026-05-04 23:50 | 39.77085 | -90.17715 | 38671 ft | 513 kts | 77° |
| 2026-05-04 23:50 | 39.78362 | -90.08579 | 38672 ft | 513 kts | 77° |
| 2026-05-04 23:51 | 39.79626 | -89.99483 | 38673 ft | 513 kts | 77° |
| 2026-05-04 23:51 | 39.80897 | -89.90283 | 38675 ft | 513 kts | 77° |
| 2026-05-04 23:52 | 39.82151 | -89.81152 | 38680 ft | 512 kts | 77° |
| 2026-05-04 23:52 | 39.83401 | -89.71989 | 38687 ft | 512 kts | 77° |
| 2026-05-04 23:53 | 39.84060 | -89.62708 | 38693 ft | 514 kts | 86° |
| 2026-05-04 23:53 | 39.84278 | -89.53420 | 38697 ft | 514 kts | 86° |
| 2026-05-04 23:54 | 39.84481 | -89.44072 | 38699 ft | 514 kts | 86° |
| 2026-05-04 23:54 | 39.84673 | -89.34756 | 38700 ft | 514 kts | 87° |
| 2026-05-04 23:55 | 39.84855 | -89.25507 | 38691 ft | 514 kts | 87° |
| 2026-05-04 23:56 | 39.85114 | -89.11546 | 38690 ft | 514 kts | 87° |
| 2026-05-04 23:56 | 39.85278 | -89.02211 | 38690 ft | 513 kts | 87° |
| 2026-05-04 23:57 | 39.85433 | -88.92917 | 38693 ft | 513 kts | 88° |
| 2026-05-04 23:57 | 39.85580 | -88.83676 | 38697 ft | 512 kts | 88° |
| 2026-05-04 23:58 | 39.85720 | -88.74386 | 38702 ft | 511 kts | 88° |
| 2026-05-04 23:58 | 39.85853 | -88.65131 | 38704 ft | 510 kts | 88° |
| 2026-05-04 23:59 | 39.85978 | -88.55868 | 38706 ft | 510 kts | 88° |
| 2026-05-04 23:59 | 39.86094 | -88.46692 | 38707 ft | 509 kts | 88° |
| 2026-05-05 00:00 | 39.86205 | -88.37425 | 38704 ft | 509 kts | 88° |
| 2026-05-05 00:00 | 39.86307 | -88.28245 | 38689 ft | 508 kts | 89° |
| 2026-05-05 00:01 | 39.86402 | -88.19051 | 38680 ft | 507 kts | 89° |
| 2026-05-05 00:01 | 39.86489 | -88.09876 | 38681 ft | 507 kts | 89° |
| 2026-05-05 00:02 | 39.86570 | -88.00700 | 38684 ft | 507 kts | 89° |
| 2026-05-05 00:02 | 39.86643 | -87.91532 | 38688 ft | 507 kts | 89° |
| 2026-05-05 00:03 | 39.86710 | -87.82287 | 38692 ft | 507 kts | 89° |
| 2026-05-05 00:03 | 39.86768 | -87.73099 | 38698 ft | 507 kts | 89° |
| 2026-05-05 00:04 | 39.86820 | -87.63902 | 38703 ft | 507 kts | 89° |
| 2026-05-05 00:04 | 39.86864 | -87.54694 | 38706 ft | 507 kts | 89° |
| 2026-05-05 00:05 | 39.86901 | -87.45470 | 38707 ft | 507 kts | 89° |
| 2026-05-05 00:05 | 39.86930 | -87.36250 | 38710 ft | 507 kts | 89° |
| 2026-05-05 00:06 | 39.86953 | -87.27063 | 38705 ft | 507 kts | 89° |
| 2026-05-05 00:06 | 39.86968 | -87.17903 | 38707 ft | 507 kts | 89° |
| 2026-05-05 00:07 | 39.86976 | -87.08718 | 38709 ft | 508 kts | 89° |
| 2026-05-05 00:07 | 39.86977 | -86.99480 | 38712 ft | 508 kts | 89° |
| 2026-05-05 00:08 | 39.86970 | -86.90200 | 38716 ft | 508 kts | 89° |
| 2026-05-05 00:08 | 39.86956 | -86.81064 | 38718 ft | 508 kts | 89° |
| 2026-05-05 00:09 | 39.86935 | -86.71819 | 38722 ft | 507 kts | 89° |
| 2026-05-05 00:09 | 39.86906 | -86.62643 | 38726 ft | 507 kts | 89° |
| 2026-05-05 00:10 | 39.86871 | -86.53402 | 38731 ft | 507 kts | 89° |
| 2026-05-05 00:10 | 39.86827 | -86.44184 | 38735 ft | 507 kts | 89° |
| 2026-05-05 00:11 | 39.86965 | -86.35017 | 38737 ft | 505 kts | 81° |
| 2026-05-05 00:11 | 39.88445 | -86.26106 | 38734 ft | 505 kts | 74° |
| 2026-05-05 00:12 | 39.90195 | -86.17223 | 38735 ft | 504 kts | 74° |
| 2026-05-05 00:12 | 39.91918 | -86.08335 | 38739 ft | 503 kts | 74° |
| 2026-05-05 00:13 | 39.93625 | -85.99421 | 38738 ft | 503 kts | 74° |
| 2026-05-05 00:13 | 39.95316 | -85.90517 | 38731 ft | 503 kts | 74° |
| 2026-05-05 00:14 | 39.96980 | -85.81692 | 38728 ft | 503 kts | 74° |
| 2026-05-05 00:14 | 39.98650 | -85.72791 | 38732 ft | 503 kts | 74° |
| 2026-05-05 00:15 | 40.00314 | -85.63868 | 38737 ft | 503 kts | 74° |
| 2026-05-05 00:15 | 40.01970 | -85.54948 | 38740 ft | 503 kts | 74° |
| 2026-05-05 00:16 | 40.03617 | -85.46039 | 38721 ft | 505 kts | 75° |
| 2026-05-05 00:16 | 40.05267 | -85.37068 | 38722 ft | 508 kts | 75° |
| 2026-05-05 00:17 | 40.06910 | -85.28088 | 38750 ft | 510 kts | 76° |
| 2026-05-05 00:17 | 40.08550 | -85.19083 | 38749 ft | 509 kts | 76° |
| 2026-05-05 00:18 | 40.10183 | -85.10075 | 38740 ft | 508 kts | 76° |
| 2026-05-05 00:18 | 40.11809 | -85.01063 | 38742 ft | 508 kts | 76° |
| 2026-05-05 00:19 | 40.13426 | -84.92052 | 38745 ft | 508 kts | 76° |
| 2026-05-05 00:19 | 40.15041 | -84.83017 | 38750 ft | 508 kts | 76° |
| 2026-05-05 00:20 | 40.16649 | -84.73981 | 38755 ft | 507 kts | 76° |
| 2026-05-05 00:20 | 40.18233 | -84.65028 | 38760 ft | 507 kts | 76° |
| 2026-05-05 00:21 | 40.19819 | -84.56027 | 38760 ft | 506 kts | 76° |
| 2026-05-05 00:21 | 40.21399 | -84.47011 | 38760 ft | 505 kts | 75° |
| 2026-05-05 00:22 | 40.22960 | -84.38057 | 38757 ft | 505 kts | 75° |
| 2026-05-05 00:22 | 40.24512 | -84.29114 | 38750 ft | 505 kts | 76° |
| 2026-05-05 00:23 | 40.26068 | -84.20106 | 38749 ft | 505 kts | 76° |
| 2026-05-05 00:23 | 40.27612 | -84.11121 | 38753 ft | 504 kts | 76° |
| 2026-05-05 00:24 | 40.29998 | -84.02539 | 38760 ft | 500 kts | 59° |
| 2026-05-05 00:24 | 40.33904 | -83.95013 | 38773 ft | 497 kts | 50° |
| 2026-05-05 00:25 | 40.38070 | -83.87770 | 38780 ft | 497 kts | 50° |
| 2026-05-05 00:25 | 40.42192 | -83.80539 | 38782 ft | 496 kts | 50° |
| 2026-05-05 00:26 | 40.46352 | -83.73195 | 38781 ft | 497 kts | 50° |
| 2026-05-05 00:26 | 40.50515 | -83.65812 | 38780 ft | 497 kts | 50° |
| 2026-05-05 00:27 | 40.54633 | -83.58480 | 38775 ft | 497 kts | 50° |
| 2026-05-05 00:27 | 40.58772 | -83.51093 | 38764 ft | 498 kts | 50° |
| 2026-05-05 00:28 | 40.62904 | -83.43696 | 38758 ft | 499 kts | 50° |
| 2026-05-05 00:28 | 40.67013 | -83.36321 | 38756 ft | 500 kts | 50° |
| 2026-05-05 00:29 | 40.71166 | -83.28901 | 38748 ft | 500 kts | 50° |
| 2026-05-05 00:29 | 40.75448 | -83.21654 | 38747 ft | 500 kts | 49° |
| 2026-05-05 00:30 | 40.79729 | -83.14394 | 38749 ft | 500 kts | 49° |
| 2026-05-05 00:30 | 40.84004 | -83.07117 | 38754 ft | 501 kts | 49° |
| 2026-05-05 00:31 | 40.88282 | -82.99812 | 38756 ft | 501 kts | 49° |
| 2026-05-05 00:31 | 40.92559 | -82.92484 | 38757 ft | 502 kts | 49° |
| 2026-05-05 00:32 | 40.96846 | -82.85119 | 38753 ft | 502 kts | 49° |
| 2026-05-05 00:32 | 41.01100 | -82.77792 | 38748 ft | 502 kts | 49° |
| 2026-05-05 00:33 | 41.05386 | -82.70393 | 38743 ft | 502 kts | 49° |
| 2026-05-05 00:33 | 41.09625 | -82.63055 | 38740 ft | 502 kts | 49° |
| 2026-05-05 00:34 | 41.13835 | -82.55595 | 38740 ft | 505 kts | 54° |
| 2026-05-05 00:34 | 41.17281 | -82.47437 | 38740 ft | 508 kts | 59° |
| 2026-05-05 00:35 | 41.20636 | -82.39138 | 38735 ft | 508 kts | 59° |
| 2026-05-05 00:35 | 41.23982 | -82.30841 | 38721 ft | 509 kts | 59° |
| 2026-05-05 00:36 | 41.27328 | -82.22522 | 38722 ft | 510 kts | 59° |
| 2026-05-05 00:36 | 41.30681 | -82.14159 | 38727 ft | 510 kts | 59° |
| 2026-05-05 00:37 | 41.34026 | -82.05765 | 38723 ft | 512 kts | 62° |
| 2026-05-05 00:37 | 41.36917 | -81.96986 | 38725 ft | 513 kts | 65° |
| 2026-05-05 00:38 | 41.39710 | -81.88238 | 38720 ft | 513 kts | 65° |
| 2026-05-05 00:38 | 41.42518 | -81.79419 | 38716 ft | 513 kts | 65° |
| 2026-05-05 00:39 | 41.45167 | -81.71079 | 38712 ft | 513 kts | 65° |
| 2026-05-05 00:39 | 41.47967 | -81.62238 | 38712 ft | 513 kts | 65° |
| 2026-05-05 00:40 | 41.50732 | -81.53482 | 38718 ft | 513 kts | 65° |
| 2026-05-05 00:40 | 41.53514 | -81.44642 | 38724 ft | 513 kts | 65° |
| 2026-05-05 00:41 | 41.56272 | -81.35853 | 38733 ft | 513 kts | 65° |
| 2026-05-05 00:41 | 41.59050 | -81.26968 | 38732 ft | 512 kts | 65° |
| 2026-05-05 00:41 | 41.60413 | -81.22594 | 38723 ft | 499 kts | 65° |
| 2026-05-05 00:42 | 41.61746 | -81.18309 | 38584 ft | 489 kts | 65° |
| 2026-05-05 00:42 | 41.63047 | -81.14124 | 38178 ft | 488 kts | 65° |
| 2026-05-05 00:42 | 41.64346 | -81.09946 | 37607 ft | 490 kts | 65° |
| 2026-05-05 00:42 | 41.65678 | -81.05650 | 37006 ft | 492 kts | 65° |
| 2026-05-05 00:43 | 41.66991 | -81.01408 | 36461 ft | 492 kts | 65° |
| 2026-05-05 00:43 | 41.68286 | -80.97215 | 35932 ft | 491 kts | 65° |
| 2026-05-05 00:43 | 41.69608 | -80.92932 | 35326 ft | 491 kts | 65° |
| 2026-05-05 00:43 | 41.70909 | -80.88707 | 34683 ft | 491 kts | 65° |
| 2026-05-05 00:44 | 41.72224 | -80.84431 | 34022 ft | 491 kts | 65° |
| 2026-05-05 00:44 | 41.73524 | -80.80197 | 33365 ft | 490 kts | 65° |
| 2026-05-05 00:44 | 41.74553 | -80.76841 | 32847 ft | 489 kts | 65° |
| 2026-05-05 00:44 | 41.75835 | -80.72647 | 32603 ft | 481 kts | 65° |
| 2026-05-05 00:45 | 41.77113 | -80.68468 | 32574 ft | 485 kts | 65° |
| 2026-05-05 00:45 | 41.79139 | -80.59721 | 32649 ft | 499 kts | 79° |
| 2026-05-05 00:46 | 41.79297 | -80.50312 | 32753 ft | 508 kts | 96° |
| 2026-05-05 00:46 | 41.78412 | -80.41002 | 32754 ft | 504 kts | 97° |
| 2026-05-05 00:47 | 41.77480 | -80.31670 | 32747 ft | 505 kts | 98° |
| 2026-05-05 00:47 | 41.76537 | -80.22336 | 32746 ft | 505 kts | 98° |
| 2026-05-05 00:48 | 41.75578 | -80.12947 | 32743 ft | 506 kts | 98° |
| 2026-05-05 00:48 | 41.74620 | -80.03648 | 32750 ft | 506 kts | 98° |
| 2026-05-05 00:49 | 41.73644 | -79.94255 | 32758 ft | 506 kts | 98° |
| 2026-05-05 00:49 | 41.72667 | -79.84942 | 32762 ft | 505 kts | 98° |
| 2026-05-05 00:50 | 41.71677 | -79.75567 | 32765 ft | 505 kts | 98° |
| 2026-05-05 00:50 | 41.70689 | -79.66296 | 32768 ft | 505 kts | 97° |
| 2026-05-05 00:51 | 41.69688 | -79.56966 | 32775 ft | 505 kts | 97° |
| 2026-05-05 00:51 | 41.68682 | -79.47680 | 32783 ft | 504 kts | 97° |
| 2026-05-05 00:52 | 41.67665 | -79.38345 | 32790 ft | 504 kts | 97° |
| 2026-05-05 00:52 | 41.66645 | -79.29071 | 32789 ft | 503 kts | 98° |
| 2026-05-05 00:53 | 41.65616 | -79.19778 | 32791 ft | 503 kts | 98° |
| 2026-05-05 00:53 | 41.64587 | -79.10562 | 32789 ft | 502 kts | 98° |
| 2026-05-05 00:54 | 41.63545 | -79.01298 | 32794 ft | 501 kts | 98° |
| 2026-05-05 00:54 | 41.62502 | -78.92094 | 32803 ft | 501 kts | 98° |
| 2026-05-05 00:55 | 41.61447 | -78.82852 | 32803 ft | 501 kts | 97° |
| 2026-05-05 00:55 | 41.60378 | -78.73564 | 32802 ft | 502 kts | 97° |
| 2026-05-05 00:56 | 41.59315 | -78.64386 | 32805 ft | 501 kts | 97° |
| 2026-05-05 00:56 | 41.58233 | -78.55116 | 32809 ft | 501 kts | 97° |
| 2026-05-05 00:57 | 41.57154 | -78.45932 | 32814 ft | 502 kts | 97° |
| 2026-05-05 00:57 | 41.56058 | -78.36669 | 32814 ft | 503 kts | 97° |
| 2026-05-05 00:58 | 41.54959 | -78.27449 | 32802 ft | 503 kts | 98° |
| 2026-05-05 00:58 | 41.53857 | -78.18276 | 32800 ft | 503 kts | 97° |
| 2026-05-05 00:59 | 41.52747 | -78.09084 | 32809 ft | 504 kts | 97° |
| 2026-05-05 00:59 | 41.51620 | -77.99833 | 32822 ft | 504 kts | 97° |
| 2026-05-05 01:00 | 41.50417 | -77.90664 | 32824 ft | 503 kts | 99° |
| 2026-05-05 01:00 | 41.49111 | -77.81519 | 32820 ft | 502 kts | 99° |
| 2026-05-05 01:01 | 41.47820 | -77.72493 | 32256 ft | 492 kts | 99° |
| 2026-05-05 01:01 | 41.47178 | -77.68006 | 31484 ft | 499 kts | 99° |
| 2026-05-05 01:01 | 41.46531 | -77.63492 | 30637 ft | 504 kts | 99° |
| 2026-05-05 01:01 | 41.45870 | -77.58905 | 30046 ft | 502 kts | 99° |
| 2026-05-05 01:02 | 41.45213 | -77.54349 | 29491 ft | 498 kts | 99° |
| 2026-05-05 01:02 | 41.44560 | -77.49829 | 29024 ft | 492 kts | 99° |
| 2026-05-05 01:02 | 41.43916 | -77.45386 | 28582 ft | 485 kts | 99° |
| 2026-05-05 01:02 | 41.43278 | -77.40994 | 28174 ft | 481 kts | 99° |
| 2026-05-05 01:03 | 41.42643 | -77.36636 | 27799 ft | 481 kts | 99° |
| 2026-05-05 01:03 | 41.42006 | -77.32272 | 27424 ft | 480 kts | 100° |
| 2026-05-05 01:03 | 41.41368 | -77.27915 | 27119 ft | 478 kts | 100° |
| 2026-05-05 01:03 | 41.40734 | -77.23600 | 26806 ft | 477 kts | 100° |
| 2026-05-05 01:04 | 41.40096 | -77.19263 | 26461 ft | 475 kts | 100° |
| 2026-05-05 01:04 | 41.38837 | -77.10753 | 25753 ft | 469 kts | 100° |
| 2026-05-05 01:04 | 41.38206 | -77.06499 | 25394 ft | 466 kts | 100° |
| 2026-05-05 01:05 | 41.37574 | -77.02252 | 25031 ft | 463 kts | 100° |
| 2026-05-05 01:05 | 41.36954 | -76.98097 | 24689 ft | 461 kts | 101° |
| 2026-05-05 01:05 | 41.36331 | -76.93932 | 24350 ft | 459 kts | 101° |
| 2026-05-05 01:05 | 41.35709 | -76.89783 | 24013 ft | 457 kts | 101° |
| 2026-05-05 01:06 | 41.35082 | -76.85616 | 23674 ft | 456 kts | 100° |
| 2026-05-05 01:06 | 41.34463 | -76.81507 | 23339 ft | 454 kts | 100° |
| 2026-05-05 01:06 | 41.33772 | -76.77420 | 23005 ft | 452 kts | 106° |
| 2026-05-05 01:06 | 41.32784 | -76.73475 | 22682 ft | 450 kts | 109° |
| 2026-05-05 01:07 | 41.31747 | -76.69566 | 22351 ft | 448 kts | 109° |
| 2026-05-05 01:07 | 41.30703 | -76.65655 | 22020 ft | 446 kts | 109° |
| 2026-05-05 01:07 | 41.29668 | -76.61782 | 21688 ft | 444 kts | 109° |
| 2026-05-05 01:07 | 41.28637 | -76.57932 | 21449 ft | 440 kts | 110° |
| 2026-05-05 01:08 | 41.27603 | -76.54078 | 21383 ft | 442 kts | 110° |
| 2026-05-05 01:08 | 41.26572 | -76.50243 | 21325 ft | 443 kts | 110° |
| 2026-05-05 01:08 | 41.25532 | -76.46378 | 21307 ft | 443 kts | 110° |
| 2026-05-05 01:08 | 41.24497 | -76.42536 | 21299 ft | 444 kts | 110° |
| 2026-05-05 01:09 | 41.23455 | -76.38673 | 21297 ft | 444 kts | 110° |
| 2026-05-05 01:09 | 41.22418 | -76.34838 | 21294 ft | 444 kts | 110° |
| 2026-05-05 01:09 | 41.21371 | -76.30971 | 21291 ft | 444 kts | 110° |
| 2026-05-05 01:09 | 41.20316 | -76.27075 | 21294 ft | 444 kts | 110° |
| 2026-05-05 01:10 | 41.19277 | -76.23250 | 21182 ft | 446 kts | 110° |
| 2026-05-05 01:10 | 41.18219 | -76.19360 | 20819 ft | 446 kts | 110° |
| 2026-05-05 01:10 | 41.17173 | -76.15522 | 20310 ft | 444 kts | 110° |
| 2026-05-05 01:10 | 41.16128 | -76.11697 | 19733 ft | 440 kts | 110° |
| 2026-05-05 01:11 | 41.15094 | -76.07914 | 19199 ft | 435 kts | 110° |
| 2026-05-05 01:11 | 41.14066 | -76.04157 | 18878 ft | 427 kts | 111° |
| 2026-05-05 01:11 | 41.13063 | -76.00499 | 18348 ft | 420 kts | 111° |
| 2026-05-05 01:11 | 41.12043 | -75.96784 | 17798 ft | 425 kts | 111° |
| 2026-05-05 01:12 | 41.11037 | -75.93128 | 17291 ft | 421 kts | 111° |
| 2026-05-05 01:12 | 41.10038 | -75.89503 | 16834 ft | 416 kts | 111° |
| 2026-05-05 01:12 | 41.09063 | -75.85950 | 16455 ft | 410 kts | 111° |
| 2026-05-05 01:12 | 41.08090 | -75.82440 | 16054 ft | 410 kts | 111° |
| 2026-05-05 01:13 | 41.07113 | -75.78913 | 15620 ft | 408 kts | 111° |
| 2026-05-05 01:13 | 41.06142 | -75.75409 | 15183 ft | 405 kts | 111° |
| 2026-05-05 01:13 | 41.05174 | -75.71915 | 14750 ft | 401 kts | 111° |
| 2026-05-05 01:13 | 41.04203 | -75.68430 | 14317 ft | 398 kts | 111° |
| 2026-05-05 01:14 | 41.03262 | -75.65044 | 13894 ft | 395 kts | 111° |
| 2026-05-05 01:14 | 41.02321 | -75.61662 | 13472 ft | 392 kts | 111° |
| 2026-05-05 01:14 | 41.01371 | -75.58254 | 13051 ft | 389 kts | 111° |
| 2026-05-05 01:14 | 41.00447 | -75.54938 | 12710 ft | 386 kts | 111° |
| 2026-05-05 01:15 | 40.99514 | -75.51603 | 12435 ft | 385 kts | 111° |
| 2026-05-05 01:15 | 40.98574 | -75.48240 | 12150 ft | 384 kts | 111° |
| 2026-05-05 01:15 | 40.97673 | -75.45013 | 11828 ft | 365 kts | 111° |
| 2026-05-05 01:15 | 40.96814 | -75.41948 | 11627 ft | 345 kts | 111° |
| 2026-05-05 01:16 | 40.95983 | -75.38992 | 11401 ft | 339 kts | 111° |
| 2026-05-05 01:16 | 40.95165 | -75.36085 | 11107 ft | 335 kts | 111° |
| 2026-05-05 01:16 | 40.94360 | -75.33223 | 10821 ft | 331 kts | 111° |
| 2026-05-05 01:16 | 40.93568 | -75.30411 | 10554 ft | 326 kts | 112° |
| 2026-05-05 01:17 | 40.92774 | -75.27593 | 10299 ft | 321 kts | 112° |
| 2026-05-05 01:17 | 40.92001 | -75.24853 | 10052 ft | 316 kts | 112° |
| 2026-05-05 01:17 | 40.91239 | -75.22155 | 9794 ft | 312 kts | 112° |
| 2026-05-05 01:17 | 40.90489 | -75.19503 | 9523 ft | 309 kts | 112° |
| 2026-05-05 01:18 | 40.89737 | -75.16847 | 9257 ft | 305 kts | 112° |
| 2026-05-05 01:18 | 40.88996 | -75.14233 | 9021 ft | 300 kts | 112° |
| 2026-05-05 01:18 | 40.88279 | -75.11703 | 8976 ft | 291 kts | 112° |
| 2026-05-05 01:18 | 40.87557 | -75.09164 | 8759 ft | 298 kts | 112° |
| 2026-05-05 01:19 | 40.86840 | -75.06615 | 8335 ft | 296 kts | 112° |
| 2026-05-05 01:19 | 40.86127 | -75.04085 | 8078 ft | 289 kts | 113° |
| 2026-05-05 01:19 | 40.85425 | -75.01612 | 7834 ft | 290 kts | 113° |
| 2026-05-05 01:19 | 40.84725 | -74.99142 | 7603 ft | 287 kts | 113° |
| 2026-05-05 01:20 | 40.84024 | -74.96666 | 7384 ft | 286 kts | 113° |
| 2026-05-05 01:20 | 40.83333 | -74.94224 | 7170 ft | 284 kts | 113° |
| 2026-05-05 01:20 | 40.82644 | -74.91781 | 7037 ft | 281 kts | 113° |
| 2026-05-05 01:20 | 40.81978 | -74.89347 | 7023 ft | 284 kts | 110° |
| 2026-05-05 01:21 | 40.81748 | -74.86755 | 6905 ft | 286 kts | 85° |
| 2026-05-05 01:21 | 40.82123 | -74.84155 | 6573 ft | 287 kts | 78° |
| 2026-05-05 01:21 | 40.82570 | -74.81601 | 6287 ft | 286 kts | 78° |
| 2026-05-05 01:21 | 40.83022 | -74.79068 | 6019 ft | 285 kts | 78° |
| 2026-05-05 01:22 | 40.83477 | -74.76529 | 5748 ft | 283 kts | 77° |
| 2026-05-05 01:22 | 40.83930 | -74.74005 | 5479 ft | 282 kts | 77° |
| 2026-05-05 01:22 | 40.84381 | -74.71503 | 5208 ft | 280 kts | 77° |
| 2026-05-05 01:22 | 40.84832 | -74.69013 | 5045 ft | 275 kts | 78° |
| 2026-05-05 01:23 | 40.85284 | -74.66537 | 5033 ft | 281 kts | 77° |
| 2026-05-05 01:23 | 40.85751 | -74.64009 | 5028 ft | 280 kts | 77° |
| 2026-05-05 01:23 | 40.86215 | -74.61506 | 5028 ft | 280 kts | 77° |
| 2026-05-05 01:23 | 40.86676 | -74.59023 | 5029 ft | 280 kts | 77° |
| 2026-05-05 01:24 | 40.87147 | -74.56517 | 5029 ft | 280 kts | 77° |
| 2026-05-05 01:24 | 40.87618 | -74.54019 | 5029 ft | 280 kts | 77° |
| 2026-05-05 01:24 | 40.88090 | -74.51518 | 5004 ft | 280 kts | 77° |
| 2026-05-05 01:24 | 40.88513 | -74.49277 | 5007 ft | 280 kts | 77° |
| 2026-05-05 01:25 | 40.88976 | -74.46809 | 5009 ft | 280 kts | 77° |
| 2026-05-05 01:25 | 40.89449 | -74.44295 | 5010 ft | 280 kts | 77° |
| 2026-05-05 01:25 | 40.89922 | -74.41788 | 5012 ft | 280 kts | 77° |
| 2026-05-05 01:25 | 40.90387 | -74.39308 | 5012 ft | 280 kts | 77° |
| 2026-05-05 01:26 | 40.90861 | -74.36790 | 5010 ft | 280 kts | 77° |
| 2026-05-05 01:26 | 40.91330 | -74.34291 | 5008 ft | 279 kts | 78° |
| 2026-05-05 01:26 | 40.91797 | -74.31797 | 5006 ft | 279 kts | 78° |
| 2026-05-05 01:26 | 40.92269 | -74.29284 | 5004 ft | 279 kts | 77° |
| 2026-05-05 01:27 | 40.92730 | -74.26816 | 5003 ft | 280 kts | 78° |
| 2026-05-05 01:27 | 40.93197 | -74.24287 | 5003 ft | 280 kts | 78° |
| 2026-05-05 01:27 | 40.93665 | -74.21787 | 5003 ft | 280 kts | 77° |
| 2026-05-05 01:27 | 40.94132 | -74.19289 | 5002 ft | 279 kts | 78° |
| 2026-05-05 01:28 | 40.94594 | -74.16782 | 5000 ft | 279 kts | 79° |
| 2026-05-05 01:28 | 40.94647 | -74.14271 | 4985 ft | 274 kts | 106° |
| 2026-05-05 01:28 | 40.93837 | -74.12049 | 4983 ft | 265 kts | 135° |
| 2026-05-05 01:28 | 40.92409 | -74.10640 | 4777 ft | 253 kts | 163° |
| 2026-05-05 01:29 | 40.90716 | -74.10145 | 4426 ft | 248 kts | 176° |
| 2026-05-05 01:29 | 40.89007 | -74.09855 | 4167 ft | 246 kts | 174° |
| 2026-05-05 01:29 | 40.87394 | -74.09188 | 3970 ft | 239 kts | 164° |
| 2026-05-05 01:29 | 40.85855 | -74.08403 | 3626 ft | 232 kts | 164° |
| 2026-05-05 01:30 | 40.84350 | -74.07732 | 3124 ft | 230 kts | 175° |
| 2026-05-05 01:30 | 40.82789 | -74.07753 | 2674 ft | 220 kts | 202° |
| 2026-05-05 01:30 | 40.81439 | -74.08677 | 2441 ft | 216 kts | 211° |
| 2026-05-05 01:30 | 40.80138 | -74.09612 | 2173 ft | 205 kts | 207° |
| 2026-05-05 01:31 | 40.78956 | -74.10341 | 1947 ft | 168 kts | 206° |
| 2026-05-05 01:31 | 40.77972 | -74.10945 | 1773 ft | 142 kts | 208° |
| 2026-05-05 01:31 | 40.77152 | -74.11468 | 1608 ft | 125 kts | 208° |
| 2026-05-05 01:31 | 40.76361 | -74.11969 | 1455 ft | 122 kts | 208° |
| 2026-05-05 01:32 | 40.75594 | -74.12456 | 1308 ft | 123 kts | 208° |
| 2026-05-05 01:32 | 40.74817 | -74.12952 | 1104 ft | 125 kts | 208° |
| 2026-05-05 01:32 | 40.74029 | -74.13441 | 884 ft | 125 kts | 207° |
| 2026-05-05 01:32 | 40.73217 | -74.13947 | 733 ft | 130 kts | 204° |
| 2026-05-05 01:33 | 40.72397 | -74.14477 | 571 ft | 130 kts | 204° |
| 2026-05-05 01:33 | 40.71570 | -74.14998 | 415 ft | 129 kts | 205° |
| 2026-05-05 01:33 | 40.70775 | -74.15512 | 222 ft | 128 kts | 202° |
| 2026-05-05 01:33 | 40.69978 | -74.16015 | 72 ft | 122 kts | 203° |
| 2026-05-05 01:34 | 40.69282 | -74.16454 | 24 ft | 94 kts | 206° |
| 2026-05-05 01:34 | 40.68874 | -74.16721 | 24 ft | 29 kts | 216° |
| 2026-05-05 01:34 | 40.68742 | -74.16885 | 24 ft | 18 kts | 230° |
| 2026-05-05 01:34 | 40.68689 | -74.16982 | 24 ft | 12 kts | 236° |
| 2026-05-05 01:35 | 40.68669 | -74.17022 | 24 ft | 0 kts | 235° |
| 2026-05-05 01:35 | 40.68668 | -74.17024 | 25 ft | 1 kts | 235° |
| 2026-05-05 01:35 | 40.68633 | -74.17093 | 25 ft | 11 kts | 248° |
| 2026-05-05 01:36 | 40.68641 | -74.17194 | 25 ft | 12 kts | 295° |
| 2026-05-05 01:36 | 40.68680 | -74.17298 | 25 ft | 10 kts | 295° |
| 2026-05-05 01:36 | 40.68741 | -74.17342 | 25 ft | 11 kts | 8° |
| 2026-05-05 01:36 | 40.68820 | -74.17297 | 25 ft | 13 kts | 27° |
| 2026-05-05 01:37 | 40.68907 | -74.17239 | 25 ft | 14 kts | 27° |
| 2026-05-05 01:37 | 40.69003 | -74.17178 | 25 ft | 14 kts | 26° |
| 2026-05-05 01:37 | 40.69077 | -74.17132 | 25 ft | 11 kts | 26° |
| 2026-05-05 01:37 | 40.69134 | -74.17095 | 25 ft | 6 kts | 25° |
| 2026-05-05 01:38 | 40.69147 | -74.17088 | 25 ft | 2 kts | 25° |
| 2026-05-05 01:38 | 40.69217 | -74.17045 | 25 ft | 15 kts | 25° |
| 2026-05-05 01:38 | 40.69304 | -74.16997 | 25 ft | 13 kts | 14° |
| 2026-05-05 01:38 | 40.69406 | -74.16979 | 25 ft | 15 kts | 0° |
| 2026-05-05 01:39 | 40.69516 | -74.16994 | 25 ft | 16 kts | 355° |
| 2026-05-05 01:39 | 40.69635 | -74.17026 | 25 ft | 15 kts | 339° |
| 2026-05-05 01:39 | 40.69738 | -74.17094 | 25 ft | 17 kts | 329° |
| 2026-05-05 01:39 | 40.69832 | -74.17189 | 25 ft | 16 kts | 316° |
| 2026-05-05 01:40 | 40.69909 | -74.17306 | 25 ft | 17 kts | 305° |
| 2026-05-05 01:40 | 40.69958 | -74.17450 | 25 ft | 17 kts | 281° |
| 2026-05-05 01:40 | 40.69970 | -74.17580 | 25 ft | 10 kts | 261° |
| 2026-05-05 01:40 | 40.69914 | -74.17641 | 25 ft | 11 kts | 198° |
| 2026-05-05 01:41 | 40.69852 | -74.17687 | 25 ft | 4 kts | 220° |
| 2026-05-05 01:41 | 40.69824 | -74.17720 | 25 ft | 6 kts | 229° |
| 2026-05-05 01:41 | 40.69814 | -74.17771 | 25 ft | 0 kts | 281° |
| 2026-05-05 01:41 | 40.69819 | -74.17806 | 25 ft | 5 kts | 280° |
| 2026-05-05 01:42 | 40.69821 | -74.17818 | 25 ft | 0 kts | 280° |